Glenrothes, United Kingdom

4:06 PM GMT on February 07, 2016 (GMT +0000)
BALFARG WEATHER STATION | | Change Station
CLOSE
Current Station
Personal Weather Station
Location: Glenrothes, FIFE
Elevation: 341 ft
Nearby Weather Stations

Elev 341 ft 56.21 °N, 3.16 °W | Updated 171 days ago

Rain
Rain
40 °F
Feels Like 30 °F
N
17
Wind Variable Wind from SSW
Gusts 27 mph

Today
High -- | Low -- °F
--% Chance of Precip.
Yesterday
High -- | Low -- °F
Precip. -- in
Pressure 28.68 in
Visibility 6.2 miles
Clouds Scattered Clouds 2200 ft
Scattered Clouds 3000 ft
Mostly Cloudy 21000 ft
Windchill 30 °F
Dew Point 36 °F
Humidity 84%
Rainfall in
Snow Depth Not available.
7:57 AM 4:56 PM
Waning Crescent, 1% visible
METAR EGQL 071550Z 25032G44KT 9999 SCT022 SCT030 BKN210 06/03 Q0971 WHT
Pressure 28.68 in
Visibility 6.2 miles
Clouds Scattered Clouds 2200 ft
Scattered Clouds 3000 ft
Mostly Cloudy 21000 ft
Windchill 30 °F
Dew Point 36 °F
Humidity 84%
Rainfall in
Snow Depth Not available.
7:57 AM 4:56 PM
Waning Crescent, 1% visible
METAR EGQL 071550Z 25032G44KT 9999 SCT022 SCT030 BKN210 06/03 Q0971 WHT

10-Day Weather Forecast

Almanac

Astronomy

Feb. 07, 2016 Rise Set
Actual Time
Civil Twilight
Nautical Twilight
Astronomical Twilight
Moon
Length of Visible Light
Length of Day
Tomorrow will be .
, % of the Moon is Illuminated

Today's Extremes

Country Highs Country Lows

Community

WunderPhotos

Upload Photos

1,891,218 photos uploaded!

WunderBlog® & News

Nearby

Air Quality

  Air Quality AQ Index Pollutant
Not available.

Snow Depth

Station Depth Elevation

Earthquake Activity

City Distance Mag. Time & Date
Minimum magnitude displayed is 2.5.

Coastal Water Temperatures

Place Temperature

Stations

Nearby Weather Stations

Station Location Temp. Windchill Dew Point Humidity Wind Precip. Elev Updated Type